Time;durP1;ratioP1;P1;durP2;ratioP2;P2;SDS_P1;SDS_P2;PMS_P1;PMS_P2;Temp;Humidity;BMP_temperature;BMP_pressure;BME280_temperature;BME280_humidity;BME280_pressure;Samples;Min_cycle;Max_cycle;Signal;HPM_P1;HPM_P2
2024/01/12 00:03:42;;;;;;;30.60;14.60;;;-1.40;99.90;;;;;;10495621;28;20237;-83
2024/01/12 00:08:45;;;;;;;31.00;16.60;;;-0.90;99.90;;;;;;10495319;28;20241;-82
2024/01/12 00:13:49;;;;;;;20.00;10.93;;;-0.60;99.90;;;;;;10494988;28;20250;-82
2024/01/12 00:18:52;;;;;;;26.80;15.03;;;-0.40;99.90;;;;;;10495300;28;20222;-82
2024/01/12 00:23:54;;;;;;;27.57;14.13;;;0.20;99.90;;;;;;10495169;28;20271;-82
2024/01/12 00:28:57;;;;;;;22.93;14.17;;;0.20;99.90;;;;;;10494180;28;20291;-82
2024/01/12 00:34:00;;;;;;;26.07;16.50;;;0.60;99.90;;;;;;10493952;28;20249;-82
2024/01/12 00:39:03;;;;;;;45.93;18.57;;;0.40;99.90;;;;;;10493184;28;20262;-81
2024/01/12 00:44:07;;;;;;;26.57;13.17;;;0.40;99.90;;;;;;10493503;28;20237;-82
2024/01/12 00:49:09;;;;;;;19.90;12.53;;;0.40;99.90;;;;;;10494093;28;20279;-82
2024/01/12 00:54:12;;;;;;;24.40;13.80;;;0.30;99.90;;;;;;10494653;28;20935;-82
2024/01/12 00:59:15;;;;;;;19.17;10.80;;;0.30;99.90;;;;;;10493776;28;20234;-82
2024/01/12 01:04:18;;;;;;;20.30;12.00;;;0.20;99.90;;;;;;10494104;28;20222;-82
2024/01/12 01:09:20;;;;;;;22.50;12.50;;;0.40;99.90;;;;;;10483840;28;20226;-82
2024/01/12 01:14:24;;;;;;;23.97;13.27;;;0.00;99.90;;;;;;10487101;28;20391;-82
2024/01/12 01:19:28;;;;;;;19.13;12.27;;;-0.10;99.90;;;;;;10493240;28;20253;-82
2024/01/12 01:24:31;;;;;;;24.33;13.60;;;0.10;99.90;;;;;;10492066;28;20291;-81
2024/01/12 01:29:34;;;;;;;65.97;35.00;;;0.10;99.90;;;;;;10491961;28;20287;-81
2024/01/12 01:34:36;;;;;;;28.70;15.57;;;0.10;99.90;;;;;;10457963;28;20682;-82
2024/01/12 01:39:39;;;;;;;21.13;12.40;;;-0.20;99.90;;;;;;10492116;28;20230;-81
2024/01/12 01:44:41;;;;;;;21.97;13.37;;;-0.20;99.90;;;;;;10491810;28;20222;-81
2024/01/12 01:49:44;;;;;;;16.13;10.17;;;-0.20;99.90;;;;;;10492580;28;20194;-82
2024/01/12 01:54:47;;;;;;;17.27;10.63;;;-0.10;99.90;;;;;;10490796;28;20612;-81
2024/01/12 01:59:50;;;;;;;20.37;10.27;;;-0.40;99.90;;;;;;10490746;28;20218;-82
2024/01/12 02:04:54;;;;;;;17.33;10.03;;;-1.10;99.90;;;;;;10481875;28;20234;-82
2024/01/12 02:09:58;;;;;;;15.07;8.93;;;-0.90;99.90;;;;;;10471090;28;20694;-81
2024/01/12 02:15:01;;;;;;;20.63;10.13;;;-0.90;99.90;;;;;;10490282;28;20645;-81
2024/01/12 02:20:04;;;;;;;14.03;9.50;;;-1.10;99.90;;;;;;10476523;28;20244;-81
2024/01/12 02:25:08;;;;;;;15.00;8.40;;;-1.40;99.90;;;;;;10491334;28;20281;-81
2024/01/12 02:30:11;;;;;;;16.17;11.33;;;-1.20;99.90;;;;;;10475044;28;20269;-82
2024/01/12 02:35:13;;;;;;;17.13;10.37;;;-0.80;99.90;;;;;;10490658;28;20249;-81
2024/01/12 02:40:16;;;;;;;17.93;9.80;;;-1.20;99.90;;;;;;10489844;28;20284;-81
2024/01/12 02:45:19;;;;;;;16.67;9.87;;;-1.20;99.90;;;;;;10491066;28;20675;-82
2024/01/12 02:50:22;;;;;;;16.83;10.10;;;-1.10;99.90;;;;;;10484859;28;20616;-81
2024/01/12 02:55:24;;;;;;;22.87;11.47;;;-1.00;99.90;;;;;;10490081;28;20307;-81
2024/01/12 03:00:30;;;;;;;18.67;10.23;;;-1.20;99.90;;;;;;10489861;28;20276;-81
2024/01/12 03:05:33;;;;;;;14.17;8.67;;;-1.40;99.90;;;;;;10491555;28;20922;-81
2024/01/12 03:10:36;;;;;;;15.33;9.27;;;-1.20;99.90;;;;;;10495954;28;20698;-82
2024/01/12 03:15:39;;;;;;;14.10;9.43;;;-1.30;99.90;;;;;;10497547;28;20254;-82
2024/01/12 03:20:41;;;;;;;16.50;9.90;;;-1.40;99.90;;;;;;10497407;28;20198;-82
2024/01/12 03:25:44;;;;;;;14.70;9.17;;;-1.20;99.90;;;;;;10498469;28;20292;-82
2024/01/12 03:30:47;;;;;;;12.37;8.37;;;-0.90;99.90;;;;;;10475780;28;20316;-82
2024/01/12 03:35:50;;;;;;;23.57;12.97;;;-1.30;99.90;;;;;;10465351;28;20276;-81
2024/01/12 03:40:52;;;;;;;14.73;9.00;;;-1.30;99.90;;;;;;10497133;28;20237;-81
2024/01/12 03:45:55;;;;;;;11.47;7.53;;;-1.20;99.90;;;;;;10495470;28;20646;-81
2024/01/12 03:50:58;;;;;;;16.23;8.43;;;-1.30;99.90;;;;;;10495019;28;20221;-81
2024/01/12 03:56:00;;;;;;;18.40;8.60;;;-1.10;99.90;;;;;;10497221;28;20304;-81
2024/01/12 04:01:06;;;;;;;15.13;9.27;;;-1.40;99.90;;;;;;10496398;28;20230;-81
2024/01/12 04:06:09;;;;;;;14.43;8.43;;;-1.70;99.90;;;;;;10496496;28;20666;-81
2024/01/12 04:11:22;;;;;;;14.57;7.57;;;-1.40;99.90;;;;;;10470406;28;20283;-81
2024/01/12 04:16:25;;;;;;;8.97;7.00;;;-1.20;99.90;;;;;;10495861;28;20609;-81
2024/01/12 04:21:28;;;;;;;14.00;8.53;;;-1.00;99.90;;;;;;10495541;28;20672;-81
2024/01/12 04:26:30;;;;;;;17.30;10.93;;;-0.50;99.90;;;;;;10495656;28;20230;-80
2024/01/12 04:31:38;;;;;;;13.90;7.90;;;-0.10;99.90;;;;;;10480945;28;20311;-81
2024/01/12 04:36:40;;;;;;;12.03;7.93;;;0.40;99.90;;;;;;10476819;28;20269;-82
2024/01/12 04:41:43;;;;;;;13.50;8.43;;;0.80;99.90;;;;;;10488690;28;20295;-81
2024/01/12 04:46:45;;;;;;;14.03;9.00;;;1.30;99.90;;;;;;10483823;28;20230;-82
2024/01/12 04:51:48;;;;;;;15.93;9.13;;;1.30;99.90;;;;;;10495059;28;20610;-82
2024/01/12 04:56:51;;;;;;;16.47;10.30;;;1.30;99.90;;;;;;10491018;28;20254;-82
2024/01/12 05:01:54;;;;;;;14.93;10.00;;;1.50;99.90;;;;;;10484425;28;20248;-82
2024/01/12 05:06:56;;;;;;;15.60;9.60;;;1.40;99.90;;;;;;10477437;28;20287;-82
2024/01/12 05:12:03;;;;;;;20.37;10.27;;;1.10;99.90;;;;;;10488666;28;20283;-82
2024/01/12 05:17:06;;;;;;;15.53;8.63;;;1.00;99.90;;;;;;10491705;28;20810;-82
2024/01/12 05:22:09;;;;;;;19.67;10.67;;;1.20;99.90;;;;;;10493741;28;20275;-82
2024/01/12 05:27:12;;;;;;;19.30;11.83;;;1.50;99.90;;;;;;10474660;28;20280;-82
2024/01/12 05:32:14;;;;;;;19.40;12.53;;;1.60;99.90;;;;;;10468989;28;20703;-82
2024/01/12 05:37:17;;;;;;;21.37;13.93;;;1.60;99.90;;;;;;10493114;28;20249;-82
2024/01/12 05:42:19;;;;;;;34.13;19.20;;;1.50;99.90;;;;;;10491470;28;20234;-82
2024/01/12 05:47:22;;;;;;;40.90;22.37;;;1.60;99.90;;;;;;10492826;28;20230;-82
2024/01/12 05:52:24;;;;;;;22.33;14.13;;;1.30;99.90;;;;;;10492423;28;20264;-82
2024/01/12 05:57:27;;;;;;;25.23;14.30;;;1.30;99.90;;;;;;10472265;28;20258;-82
2024/01/12 06:02:29;;;;;;;29.57;15.30;;;1.70;99.90;;;;;;10450824;28;20280;-82
2024/01/12 06:07:32;;;;;;;35.13;19.57;;;2.10;99.90;;;;;;10468592;28;20233;-81
2024/01/12 06:12:34;;;;;;;29.77;17.00;;;1.90;99.90;;;;;;10489332;28;20268;-82
2024/01/12 06:17:37;;;;;;;27.30;15.17;;;1.30;99.90;;;;;;10489199;28;20261;-83
2024/01/12 06:22:39;;;;;;;23.93;14.57;;;0.80;99.90;;;;;;10491152;28;20229;-83
2024/01/12 06:27:42;;;;;;;31.50;15.90;;;0.70;99.90;;;;;;10475031;28;20250;-83
2024/01/12 06:32:45;;;;;;;30.50;18.93;;;0.50;99.90;;;;;;10468204;28;20234;-83
2024/01/12 06:37:47;;;;;;;17.07;9.87;;;0.60;99.90;;;;;;10490537;28;20257;-83
2024/01/12 06:42:50;;;;;;;20.83;13.03;;;1.00;99.90;;;;;;10489617;28;20242;-83
2024/01/12 06:47:52;;;;;;;20.23;11.07;;;1.60;99.90;;;;;;10485000;28;20234;-87
2024/01/12 06:52:56;;;;;;;26.00;14.17;;;3.40;99.90;;;;;;10490411;28;20291;-87
2024/01/12 06:57:58;;;;;;;27.93;14.87;;;4.10;99.90;;;;;;10488814;28;20709;-87
2024/01/12 07:03:01;;;;;;;25.80;14.57;;;3.30;99.90;;;;;;10489146;28;20243;-87
2024/01/12 07:08:04;;;;;;;19.67;12.77;;;2.50;99.90;;;;;;10454903;28;20262;-88
2024/01/12 07:13:07;;;;;;;27.77;14.90;;;2.20;99.90;;;;;;10472201;28;20292;-87
2024/01/12 07:18:09;;;;;;;27.13;13.80;;;1.70;99.90;;;;;;10480705;28;20640;-88
2024/01/12 07:23:12;;;;;;;25.00;13.37;;;1.50;99.90;;;;;;10475451;28;20336;-87
2024/01/12 07:28:15;;;;;;;18.20;10.70;;;1.30;99.90;;;;;;10450521;28;20255;-87
2024/01/12 07:33:17;;;;;;;18.97;11.83;;;1.50;99.90;;;;;;10452502;28;20281;-87
2024/01/12 07:38:20;;;;;;;23.50;12.73;;;1.60;99.90;;;;;;10449206;28;20669;-87
2024/01/12 07:43:23;;;;;;;21.87;12.10;;;1.30;99.90;;;;;;10449699;28;20238;-87
2024/01/12 07:48:26;;;;;;;20.77;13.20;;;1.00;99.90;;;;;;10448267;28;20235;-88
2024/01/12 07:53:29;;;;;;;21.50;12.50;;;1.50;99.90;;;;;;10451294;28;20260;-87
2024/01/12 07:58:32;;;;;;;26.53;13.93;;;2.30;99.90;;;;;;10463834;28;20299;-87
2024/01/12 08:03:34;;;;;;;25.07;14.47;;;2.60;99.90;;;;;;10456574;28;20206;-87
2024/01/12 08:08:37;;;;;;;20.27;12.23;;;2.90;99.90;;;;;;10496262;28;20284;-87
2024/01/12 08:13:40;;;;;;;18.33;11.33;;;2.90;99.90;;;;;;10495625;28;20237;-87
2024/01/12 08:18:42;;;;;;;17.30;11.50;;;3.60;99.90;;;;;;10494246;28;20645;-88
2024/01/12 08:23:45;;;;;;;21.43;9.37;;;3.00;99.90;;;;;;10459626;28;20222;-88
2024/01/12 08:28:51;;;;;;;14.03;10.03;;;3.90;99.90;;;;;;10484800;28;20333;-88
2024/01/12 08:33:53;;;;;;;17.20;9.23;;;5.00;99.90;;;;;;10484160;28;20245;-88
2024/01/12 08:38:56;;;;;;;16.07;9.97;;;5.90;99.90;;;;;;10495149;28;20253;-87
2024/01/12 08:43:59;;;;;;;18.57;10.77;;;6.50;99.90;;;;;;10493460;28;20248;-88
2024/01/12 08:49:01;;;;;;;20.97;9.33;;;6.30;99.90;;;;;;10473228;28;20785;-87
2024/01/12 08:54:04;;;;;;;22.83;10.40;;;6.40;99.90;;;;;;10494403;28;21172;-87
2024/01/12 08:59:08;;;;;;;13.97;7.50;;;6.80;99.90;;;;;;10472821;28;20257;-88
2024/01/12 09:04:10;;;;;;;25.80;13.47;;;6.90;99.90;;;;;;10490036;28;20233;-87
2024/01/12 09:09:13;;;;;;;22.33;11.43;;;7.60;99.90;;;;;;10474014;28;20379;-87
2024/01/12 09:14:16;;;;;;;20.50;11.77;;;7.40;99.90;;;;;;10456871;28;20256;-88
2024/01/12 09:19:18;;;;;;;23.50;13.00;;;7.60;99.90;;;;;;10488882;28;20258;-88
2024/01/12 09:24:21;;;;;;;16.67;7.43;;;7.50;99.90;;;;;;10463936;28;20293;-88
2024/01/12 09:29:23;;;;;;;12.57;7.03;;;7.80;99.90;;;;;;10451199;28;20254;-88
2024/01/12 09:34:26;;;;;;;19.93;11.33;;;8.50;99.90;;;;;;10487888;28;20230;-88
2024/01/12 09:39:29;;;;;;;17.73;10.03;;;8.80;99.90;;;;;;10480526;28;20258;-88
2024/01/12 09:44:36;;;;;;;17.83;10.13;;;9.00;99.90;;;;;;10450167;28;20265;-88
2024/01/12 09:49:44;;;;;;;19.17;11.17;;;9.20;99.90;;;;;;10448945;28;20238;-88
2024/01/12 09:54:47;;;;;;;13.53;6.87;;;8.80;99.90;;;;;;10448763;28;20238;-87
2024/01/12 09:59:50;;;;;;;14.00;8.70;;;8.80;99.90;;;;;;10470107;28;20257;-87
2024/01/12 10:04:53;;;;;;;17.97;10.17;;;9.10;99.90;;;;;;10468706;28;20241;-87
2024/01/12 10:09:55;;;;;;;18.33;11.43;;;8.90;99.90;;;;;;10482816;28;20559;-86
2024/01/12 10:15:05;;;;;;;15.50;9.50;;;9.00;99.90;;;;;;10489509;28;20846;-87
2024/01/12 10:20:09;;;;;;;8.23;5.20;;;8.90;99.90;;;;;;10473259;28;20253;-88
2024/01/12 10:25:13;;;;;;;12.00;6.67;;;9.10;99.90;;;;;;10467733;28;20235;-87
2024/01/12 10:30:17;;;;;;;14.97;7.57;;;9.70;99.90;;;;;;10486404;28;20643;-88
2024/01/12 10:35:20;;;;;;;13.33;6.10;;;9.30;99.90;;;;;;10475108;28;20679;-87
2024/01/12 10:40:23;;;;;;;13.53;9.53;;;9.50;99.90;;;;;;10451553;28;20707;-86
2024/01/12 10:45:28;;;;;;;16.37;9.67;;;9.40;99.90;;;;;;10466258;28;20275;-87
2024/01/12 10:50:40;;;;;;;18.70;8.33;;;9.20;99.90;;;;;;10488343;28;20246;-87
2024/01/12 10:55:52;;;;;;;17.60;11.40;;;9.20;99.90;;;;;;10490055;28;20238;-87
2024/01/12 11:00:55;;;;;;;21.50;12.20;;;9.20;99.90;;;;;;10490258;28;20302;-88
2024/01/12 11:05:59;;;;;;;15.63;8.57;;;9.00;99.90;;;;;;10474920;28;20630;-87
2024/01/12 11:11:04;;;;;;;20.23;13.60;;;9.20;99.90;;;;;;10459944;28;20234;-86
2024/01/12 11:16:08;;;;;;;9.90;5.70;;;9.00;99.90;;;;;;10487738;28;20254;-87
2024/01/12 11:21:11;;;;;;;13.93;6.20;;;7.60;99.90;;;;;;10489681;28;20288;-86
2024/01/12 11:26:14;;;;;;;11.03;6.93;;;8.70;99.90;;;;;;10489585;28;20697;-87
2024/01/12 11:31:26;;;;;;;15.03;8.60;;;9.20;99.90;;;;;;10496661;28;20254;-87
2024/01/12 11:36:30;;;;;;;16.73;10.93;;;9.40;99.90;;;;;;10496947;28;20319;-86
2024/01/12 11:41:32;;;;;;;14.70;7.40;;;8.70;99.90;;;;;;10497034;28;20234;-87
2024/01/12 11:46:35;;;;;;;12.13;6.77;;;8.90;99.90;;;;;;10497453;28;20307;-87
2024/01/12 11:51:38;;;;;;;14.17;7.97;;;9.10;99.90;;;;;;10495153;28;20610;-87
2024/01/12 11:56:42;;;;;;;8.63;5.27;;;9.40;99.90;;;;;;10496894;28;20279;-87
2024/01/12 12:01:44;;;;;;;10.77;6.00;;;9.40;99.90;;;;;;10485691;28;20276;-87
2024/01/12 12:06:48;;;;;;;10.63;7.17;;;9.20;99.90;;;;;;10455556;28;20227;-87
2024/01/12 12:11:50;;;;;;;14.23;8.70;;;9.10;99.90;;;;;;10486846;28;20257;-87
2024/01/12 12:16:54;;;;;;;12.10;5.67;;;9.00;99.90;;;;;;10454807;28;20345;-88
2024/01/12 12:21:57;;;;;;;9.90;6.47;;;9.00;99.90;;;;;;10477498;28;20302;-88
2024/01/12 12:26:59;;;;;;;10.23;5.27;;;9.00;99.90;;;;;;10481044;28;20235;-86
2024/01/12 12:32:02;;;;;;;13.37;6.57;;;9.40;99.90;;;;;;10485470;28;20295;-84
2024/01/12 12:37:08;;;;;;;10.27;5.70;;;8.90;99.90;;;;;;10470554;28;20258;-84
2024/01/12 12:42:12;;;;;;;9.27;4.73;;;8.40;99.90;;;;;;10467255;28;20230;-84
2024/01/12 12:47:16;;;;;;;9.00;4.77;;;8.50;99.90;;;;;;10462475;28;20230;-83
2024/01/12 12:52:19;;;;;;;10.17;3.93;;;8.40;99.90;;;;;;10469897;28;20233;-83
2024/01/12 12:57:21;;;;;;;8.37;6.60;;;8.90;99.90;;;;;;10475271;28;20254;-82
2024/01/12 13:02:24;;;;;;;14.43;6.10;;;9.30;99.90;;;;;;10471102;28;20768;-83
2024/01/12 13:07:26;;;;;;;11.03;6.83;;;9.80;99.90;;;;;;10463273;28;20235;-82
2024/01/12 13:12:29;;;;;;;8.80;4.40;;;9.70;99.90;;;;;;10478255;28;20244;-82
2024/01/12 13:17:32;;;;;;;6.20;3.90;;;10.10;99.90;;;;;;10471725;28;20694;-82
2024/01/12 13:22:34;;;;;;;6.97;4.40;;;10.20;99.90;;;;;;10490278;28;20287;-82
2024/01/12 13:27:37;;;;;;;12.80;6.90;;;10.30;99.90;;;;;;10491892;28;20292;-82
2024/01/12 13:32:40;;;;;;;6.20;4.03;;;10.20;99.90;;;;;;10466984;28;20281;-82
2024/01/12 13:37:42;;;;;;;7.43;4.93;;;10.50;99.90;;;;;;10459950;28;20259;-82
2024/01/12 13:42:47;;;;;;;8.67;5.57;;;10.20;99.90;;;;;;10477541;28;20249;-82
2024/01/12 13:47:50;;;;;;;7.00;5.40;;;9.90;99.90;;;;;;10492105;28;20241;-83
2024/01/12 13:52:53;;;;;;;8.03;6.17;;;10.20;99.90;;;;;;10489654;28;20667;-83
2024/01/12 13:57:57;;;;;;;11.53;3.57;;;10.50;99.90;;;;;;10485836;28;20243;-88
2024/01/12 14:02:59;;;;;;;7.60;5.43;;;10.20;99.90;;;;;;10491079;28;20234;-87
2024/01/12 14:08:02;;;;;;;5.60;4.23;;;9.50;99.90;;;;;;10490466;28;20592;-87
2024/01/12 14:13:05;;;;;;;6.93;4.23;;;9.40;99.90;;;;;;10489360;28;20242;-87
2024/01/12 14:18:08;;;;;;;4.90;3.47;;;9.50;99.90;;;;;;10491335;28;20302;-88
2024/01/12 14:23:13;;;;;;;6.10;4.23;;;9.60;99.90;;;;;;10456655;28;20227;-88
2024/01/12 14:28:16;;;;;;;5.87;3.60;;;9.70;99.90;;;;;;10432693;28;20226;-88
2024/01/12 14:33:33;;;;;;;6.93;4.67;;;9.80;99.90;;;;;;10476680;28;20222;-88
2024/01/12 14:38:36;;;;;;;8.47;4.03;;;9.70;99.90;;;;;;10490821;28;20788;-89
2024/01/12 14:43:41;;;;;;;7.50;3.93;;;9.70;99.90;;;;;;10490382;28;20238;-89
2024/01/12 14:48:44;;;;;;;6.70;4.43;;;9.60;99.90;;;;;;10488661;28;20226;-88
2024/01/12 14:53:48;;;;;;;6.20;4.10;;;9.30;99.90;;;;;;10447406;28;20238;-88
2024/01/12 14:58:51;;;;;;;11.07;9.43;;;8.70;99.90;;;;;;10454521;28;20707;-87
2024/01/12 15:03:53;;;;;;;14.67;8.03;;;5.90;99.90;;;;;;10454796;28;20202;-87
2024/01/12 15:09:08;;;;;;;9.47;4.63;;;3.30;99.90;;;;;;10457949;28;20292;-87
2024/01/12 15:14:13;;;;;;;10.57;4.67;;;2.90;99.90;;;;;;10490863;28;20268;-86
2024/01/12 15:19:15;;;;;;;7.17;4.17;;;4.60;99.90;;;;;;10474162;28;20312;-86
2024/01/12 15:24:18;;;;;;;7.90;4.13;;;7.40;99.90;;;;;;10495181;28;20300;-86
2024/01/12 15:29:20;;;;;;;6.57;3.30;;;9.00;99.90;;;;;;10478086;28;20729;-86
2024/01/12 15:34:25;;;;;;;5.93;3.33;;;9.60;99.90;;;;;;10462998;28;20226;-86
2024/01/12 15:39:28;;;;;;;7.20;3.73;;;10.00;99.90;;;;;;10455786;28;20254;-85
2024/01/12 15:44:33;;;;;;;7.60;5.17;;;10.50;99.90;;;;;;10440069;28;20680;-86
2024/01/12 15:49:35;;;;;;;5.47;3.93;;;10.60;99.90;;;;;;10455032;28;20297;-86
2024/01/12 15:54:42;;;;;;;7.00;4.23;;;10.60;99.90;;;;;;10452884;28;20699;-84
2024/01/12 15:59:45;;;;;;;9.53;5.70;;;10.20;99.90;;;;;;10452248;28;20270;-86
2024/01/12 16:04:47;;;;;;;4.20;2.77;;;10.10;99.90;;;;;;10479385;28;20222;-85
2024/01/12 16:09:50;;;;;;;7.97;4.57;;;10.20;99.90;;;;;;10496567;28;20750;-85
2024/01/12 16:14:52;;;;;;;6.50;3.73;;;10.00;99.90;;;;;;10494177;28;20260;-84
2024/01/12 16:19:55;;;;;;;9.20;6.80;;;9.90;99.90;;;;;;10493381;28;20710;-85
2024/01/12 16:24:58;;;;;;;7.43;4.83;;;10.10;99.90;;;;;;10495585;28;20288;-84
2024/01/12 16:30:01;;;;;;;9.33;5.10;;;10.20;99.90;;;;;;10470321;28;20268;-84
2024/01/12 16:35:04;;;;;;;6.13;4.13;;;10.40;99.90;;;;;;10455511;28;20700;-84
2024/01/12 16:40:08;;;;;;;5.67;3.70;;;10.80;99.90;;;;;;10451944;28;20303;-85
2024/01/12 16:45:10;;;;;;;6.27;3.70;;;10.70;99.90;;;;;;10478155;28;20256;-84
2024/01/12 16:50:16;;;;;;;6.47;4.23;;;10.30;99.90;;;;;;10488906;28;20239;-85
2024/01/12 16:55:20;;;;;;;5.20;3.33;;;10.40;99.90;;;;;;10493417;28;20231;-84
2024/01/12 17:00:23;;;;;;;10.03;4.90;;;11.10;99.90;;;;;;10486515;28;20311;-84
2024/01/12 17:05:25;;;;;;;9.37;6.37;;;10.30;99.90;;;;;;10490074;28;20679;-83
2024/01/12 17:10:28;;;;;;;6.40;4.70;;;10.30;99.90;;;;;;10485798;28;20231;-83
2024/01/12 17:15:30;;;;;;;11.13;6.67;;;10.30;99.90;;;;;;10490335;28;20292;-82
2024/01/12 17:20:34;;;;;;;18.93;9.87;;;10.10;99.90;;;;;;10476157;28;20710;-84
2024/01/12 17:25:37;;;;;;;14.87;7.53;;;10.20;99.90;;;;;;10479439;28;20227;-84
2024/01/12 17:30:39;;;;;;;14.80;9.13;;;10.10;99.90;;;;;;10471838;28;20632;-85
2024/01/12 17:35:47;;;;;;;14.37;7.77;;;10.10;99.90;;;;;;10118151;28;10000313;-84
2024/01/12 17:40:49;;;;;;;15.20;8.67;;;9.80;99.90;;;;;;10469487;28;20218;-86
2024/01/12 17:45:53;;;;;;;11.60;7.23;;;9.70;99.90;;;;;;10481884;28;20285;-85
2024/01/12 17:50:55;;;;;;;12.83;6.30;;;10.00;99.90;;;;;;10471630;28;20232;-85
2024/01/12 17:55:58;;;;;;;17.10;10.63;;;10.00;99.90;;;;;;10465301;28;20680;-85
2024/01/12 18:01:00;;;;;;;13.17;8.43;;;10.10;99.90;;;;;;10473913;28;20293;-85
2024/01/12 18:06:03;;;;;;;8.60;4.83;;;9.30;99.90;;;;;;10466939;28;20228;-85
2024/01/12 18:11:24;;;;;;;14.57;7.33;;;9.10;99.90;;;;;;10468087;28;20621;-85
2024/01/12 18:16:28;;;;;;;13.93;6.00;;;9.30;99.90;;;;;;10465084;28;20230;-86
2024/01/12 18:21:32;;;;;;;9.10;5.17;;;9.50;99.90;;;;;;10473359;28;20260;-86
2024/01/12 18:26:34;;;;;;;10.53;6.23;;;10.00;99.90;;;;;;10469308;28;20238;-86
2024/01/12 18:31:37;;;;;;;11.57;7.80;;;10.00;99.90;;;;;;10444839;28;20291;-85
2024/01/12 18:36:39;;;;;;;5.10;3.97;;;10.00;99.90;;;;;;10456278;28;20267;-85
2024/01/12 18:41:42;;;;;;;9.57;6.03;;;10.10;99.90;;;;;;10448587;28;20292;-87
2024/01/12 18:46:44;;;;;;;8.47;5.37;;;10.10;99.90;;;;;;10455368;28;20312;-87
2024/01/12 18:51:47;;;;;;;7.03;5.07;;;10.50;99.90;;;;;;10472904;28;20239;-85
2024/01/12 18:56:49;;;;;;;8.53;4.93;;;10.50;99.90;;;;;;10482212;28;20758;-85
2024/01/12 19:01:52;;;;;;;12.30;7.17;;;10.40;99.90;;;;;;10487530;28;20298;-86
2024/01/12 19:06:57;;;;;;;9.30;4.60;;;10.90;99.90;;;;;;10456403;28;20298;-84
2024/01/12 19:12:00;;;;;;;13.93;9.00;;;10.50;99.90;;;;;;10490863;28;20219;-85
2024/01/12 19:17:03;;;;;;;9.17;6.27;;;11.00;99.90;;;;;;10488240;28;20234;-85
2024/01/12 19:22:06;;;;;;;13.40;9.00;;;10.50;99.90;;;;;;10486305;28;20323;-85
2024/01/12 19:27:09;;;;;;;14.63;8.57;;;10.40;99.90;;;;;;10485260;28;20298;-85
2024/01/12 19:32:13;;;;;;;11.93;6.97;;;10.30;99.90;;;;;;10481960;28;20238;-85
2024/01/12 19:37:19;;;;;;;9.97;6.63;;;10.60;99.90;;;;;;10483444;28;20236;-85
2024/01/12 19:42:21;;;;;;;11.60;7.37;;;10.70;99.90;;;;;;10487309;28;21022;-86
2024/01/12 19:47:24;;;;;;;5.63;2.53;;;10.80;99.90;;;;;;10482201;28;20284;-85
2024/01/12 19:52:26;;;;;;;12.77;8.83;;;10.90;99.90;;;;;;10491096;28;20292;-85
2024/01/12 19:57:29;;;;;;;11.20;7.33;;;10.70;99.90;;;;;;10478731;28;20284;-85
2024/01/12 20:02:31;;;;;;;6.37;4.30;;;10.40;99.90;;;;;;10496997;28;20316;-85
2024/01/12 20:07:35;;;;;;;9.47;6.17;;;10.70;99.90;;;;;;10496670;28;20668;-85
2024/01/12 20:12:40;;;;;;;13.60;8.40;;;10.50;99.90;;;;;;10497482;28;20725;-85
2024/01/12 20:17:43;;;;;;;9.47;5.13;;;10.50;99.90;;;;;;10495687;28;20240;-86
2024/01/12 20:22:45;;;;;;;11.20;7.60;;;10.90;99.90;;;;;;10482516;28;20632;-86
2024/01/12 20:27:48;;;;;;;15.57;5.20;;;10.90;99.90;;;;;;10496231;28;20281;-86
2024/01/12 20:32:50;;;;;;;8.70;4.67;;;10.80;99.90;;;;;;10474333;28;20199;-86
2024/01/12 20:37:53;;;;;;;14.63;7.90;;;11.00;99.90;;;;;;10494699;28;20230;-86
2024/01/12 20:42:55;;;;;;;8.77;4.90;;;10.70;99.90;;;;;;10477482;28;20233;-86
2024/01/12 20:47:58;;;;;;;8.00;4.40;;;10.30;99.90;;;;;;10496337;28;20536;-86
2024/01/12 20:53:00;;;;;;;7.07;4.30;;;10.60;99.90;;;;;;10494780;28;20223;-85
2024/01/12 20:58:03;;;;;;;8.73;6.60;;;11.00;99.90;;;;;;10494073;28;20235;-86
2024/01/12 21:03:08;;;;;;;12.00;7.23;;;10.90;99.90;;;;;;10493769;28;20266;-88
2024/01/12 21:08:12;;;;;;;5.57;3.20;;;10.50;99.90;;;;;;10492964;28;20246;-85
2024/01/12 21:13:15;;;;;;;10.70;6.30;;;10.40;99.90;;;;;;10493973;28;20230;-86
2024/01/12 21:18:17;;;;;;;7.57;4.13;;;10.20;99.90;;;;;;10494790;28;20290;-87
2024/01/12 21:23:20;;;;;;;9.83;4.77;;;10.60;99.90;;;;;;10479975;28;20299;-85
2024/01/12 21:28:23;;;;;;;5.30;2.47;;;10.80;99.90;;;;;;10491350;28;20263;-87
2024/01/12 21:33:25;;;;;;;7.17;2.73;;;10.80;99.90;;;;;;10503189;28;20204;-87
2024/01/12 21:38:28;;;;;;;6.60;4.73;;;11.10;99.90;;;;;;10510690;28;20647;-86
2024/01/12 21:43:31;;;;;;;4.50;2.77;;;10.40;99.90;;;;;;10520017;28;20201;-88
2024/01/12 21:48:33;;;;;;;6.53;3.87;;;10.30;99.90;;;;;;10533872;28;20201;-87
2024/01/12 21:53:36;;;;;;;5.27;3.23;;;10.50;99.90;;;;;;10528093;28;20252;-86
2024/01/12 21:58:38;;;;;;;6.70;3.50;;;10.50;99.90;;;;;;10509932;28;20212;-86
2024/01/12 22:03:41;;;;;;;4.10;3.60;;;10.40;99.90;;;;;;10512060;28;20778;-86
2024/01/12 22:08:43;;;;;;;7.43;4.07;;;10.50;99.90;;;;;;10512013;28;20199;-85
2024/01/12 22:13:46;;;;;;;5.10;3.43;;;10.40;99.90;;;;;;10525387;28;20179;-88
2024/01/12 22:18:48;;;;;;;8.90;5.67;;;10.50;99.90;;;;;;10517677;28;20212;-83
2024/01/12 22:23:51;;;;;;;6.30;3.50;;;10.10;99.90;;;;;;10511991;28;20188;-82
2024/01/12 22:28:54;;;;;;;5.63;4.07;;;9.70;99.90;;;;;;10530765;28;20270;-82
2024/01/12 22:33:58;;;;;;;7.30;5.53;;;10.20;99.90;;;;;;10516806;28;20207;-86
2024/01/12 22:39:01;;;;;;;13.33;6.93;;;10.30;99.90;;;;;;10523873;28;20231;-84
2024/01/12 22:44:03;;;;;;;7.20;4.97;;;9.80;99.90;;;;;;10525871;28;20186;-86
2024/01/12 22:49:06;;;;;;;5.83;4.07;;;9.70;99.90;;;;;;10521961;28;20206;-85
2024/01/12 22:54:12;;;;;;;7.13;4.23;;;10.00;99.90;;;;;;10522719;28;20195;-86
2024/01/12 22:59:15;;;;;;;7.93;5.93;;;10.40;99.90;;;;;;10521938;28;20356;-86
2024/01/12 23:04:17;;;;;;;8.00;5.07;;;9.70;99.90;;;;;;10513496;28;20192;-87
2024/01/12 23:09:20;;;;;;;7.77;5.23;;;9.50;99.90;;;;;;10522254;28;20389;-86
2024/01/12 23:14:23;;;;;;;10.30;6.67;;;9.90;99.90;;;;;;10531304;28;20217;-86
2024/01/12 23:19:26;;;;;;;12.60;7.37;;;9.90;99.90;;;;;;10514519;28;20585;-87
2024/01/12 23:24:29;;;;;;;12.23;7.80;;;9.20;99.90;;;;;;10519673;28;20225;-87
2024/01/12 23:29:31;;;;;;;9.90;7.23;;;9.00;99.90;;;;;;10521485;28;20219;-87
2024/01/12 23:34:47;;;;;;;8.43;6.20;;;9.10;99.90;;;;;;10502801;28;20197;-85
2024/01/12 23:39:50;;;;;;;6.57;4.27;;;9.40;99.90;;;;;;10483843;28;20280;-87
2024/01/12 23:44:52;;;;;;;6.40;5.00;;;9.70;99.90;;;;;;10485160;28;20204;-87
2024/01/12 23:49:55;;;;;;;4.27;2.77;;;9.80;99.90;;;;;;10483273;28;20252;-87
2024/01/12 23:54:57;;;;;;;7.33;5.90;;;10.10;99.90;;;;;;10486536;28;20562;-86
